Time;durP1;ratioP1;P1;durP2;ratioP2;P2;SDS_P1;SDS_P2;PMS_P1;PMS_P2;Temp;Humidity;BMP_temperature;BMP_pressure;BME280_temperature;BME280_humidity;BME280_pressure;Samples;Min_cycle;Max_cycle;Signal;HPM_P1;HPM_P2
2022/08/10 00:01:34;;;;;;;2.87;1.97;;;28.20;54.30;;;;;;4917949;29;20464;-76
2022/08/10 00:04:00;;;;;;;3.80;2.20;;;28.20;54.30;;;;;;4901849;29;20953;-75
2022/08/10 00:06:27;;;;;;;2.07;1.87;;;28.20;54.30;;;;;;4902037;29;20579;-74
2022/08/10 00:08:55;;;;;;;2.30;2.10;;;28.20;54.40;;;;;;4917851;29;20447;-75
2022/08/10 00:11:21;;;;;;;2.20;2.00;;;28.20;54.40;;;;;;4917764;29;20471;-74
2022/08/10 00:13:50;;;;;;;2.00;1.90;;;28.10;54.50;;;;;;4948554;29;20429;-73
2022/08/10 00:16:16;;;;;;;1.93;1.83;;;28.10;54.40;;;;;;4919163;29;20455;-74
2022/08/10 00:18:42;;;;;;;2.00;1.80;;;28.10;54.40;;;;;;4917638;29;20460;-74
2022/08/10 00:21:09;;;;;;;2.23;2.03;;;28.10;55.00;;;;;;4918591;29;20424;-75
2022/08/10 00:23:40;;;;;;;2.77;2.00;;;28.10;54.50;;;;;;4919008;29;20413;-75
2022/08/10 00:26:12;;;;;;;2.03;1.83;;;28.00;54.50;;;;;;4918610;29;21032;-74
2022/08/10 00:28:37;;;;;;;3.03;1.90;;;28.00;54.50;;;;;;4901790;29;20459;-74
2022/08/10 00:31:03;;;;;;;2.10;1.90;;;28.00;54.50;;;;;;4918740;29;20405;-74
2022/08/10 00:33:32;;;;;;;1.80;1.70;;;28.00;54.50;;;;;;4917723;29;20776;-74
2022/08/10 00:35:58;;;;;;;2.20;2.00;;;28.00;54.50;;;;;;4917753;29;20945;-75
2022/08/10 00:38:26;;;;;;;2.10;1.90;;;28.00;54.60;;;;;;4917355;29;20641;-73
2022/08/10 00:40:52;;;;;;;1.80;1.70;;;28.00;54.60;;;;;;4917262;29;20605;-74
2022/08/10 00:43:18;;;;;;;1.70;1.60;;;28.00;54.60;;;;;;4918386;29;20448;-73
2022/08/10 00:45:44;;;;;;;2.10;1.80;;;27.90;54.70;;;;;;4901245;29;20437;-74
2022/08/10 00:48:15;;;;;;;1.87;1.77;;;27.90;54.60;;;;;;4933243;29;20964;-74
2022/08/10 00:50:41;;;;;;;2.57;2.07;;;27.90;54.70;;;;;;4915955;29;20471;-74
2022/08/10 00:53:07;;;;;;;2.10;1.90;;;27.90;54.70;;;;;;4901441;29;20480;-74
2022/08/10 00:55:36;;;;;;;2.10;1.90;;;27.90;54.70;;;;;;4916914;29;20469;-74
2022/08/10 00:58:02;;;;;;;2.00;1.80;;;27.90;54.80;;;;;;4918091;29;20585;-74
2022/08/10 01:00:28;;;;;;;2.93;2.00;;;27.80;54.70;;;;;;4932602;29;20424;-74
2022/08/10 01:02:57;;;;;;;2.40;2.07;;;27.80;54.70;;;;;;4932529;29;20511;-74
2022/08/10 01:05:24;;;;;;;1.93;1.80;;;27.80;54.80;;;;;;4948591;29;20421;-75
2022/08/10 01:07:50;;;;;;;2.17;1.93;;;27.80;54.80;;;;;;4917984;29;20886;-76
2022/08/10 01:10:42;;;;;;;3.47;1.90;;;27.80;54.80;;;;;;4917618;29;20428;-76
2022/08/10 01:13:20;;;;;;;2.20;2.00;;;27.70;54.80;;;;;;4917807;29;20483;-77
2022/08/10 01:16:10;;;;;;;2.00;1.80;;;27.70;54.80;;;;;;4931958;29;20847;-76
2022/08/10 01:18:45;;;;;;;2.03;1.60;;;27.70;54.90;;;;;;4932300;29;20460;-76
2022/08/10 01:21:46;;;;;;;1.90;1.70;;;27.70;54.90;;;;;;4913226;29;20434;-76
2022/08/10 01:24:32;;;;;;;2.13;1.70;;;27.60;54.90;;;;;;4927002;29;20663;-76
2022/08/10 01:27:09;;;;;;;2.20;2.00;;;27.60;54.90;;;;;;4900844;29;20459;-76
2022/08/10 01:30:02;;;;;;;2.10;1.90;;;27.60;55.00;;;;;;4916418;29;20954;-77
2022/08/10 01:32:55;;;;;;;2.80;1.80;;;27.60;55.00;;;;;;4917615;29;20579;-76
2022/08/10 01:35:34;;;;;;;1.77;1.67;;;27.60;55.20;;;;;;4914368;29;20433;-76
2022/08/10 01:38:22;;;;;;;2.30;2.03;;;27.50;55.00;;;;;;4947509;29;21004;-76
2022/08/10 01:41:36;;;;;;;1.97;1.87;;;27.50;55.10;;;;;;4915281;29;20421;-76
2022/08/10 01:44:10;;;;;;;2.10;1.77;;;27.50;55.10;;;;;;4924110;29;20520;-76
2022/08/10 01:46:44;;;;;;;1.90;1.80;;;27.50;55.10;;;;;;4916448;29;20461;-76
2022/08/10 01:49:14;;;;;;;2.50;2.00;;;27.40;55.10;;;;;;4916944;29;20512;-76
2022/08/10 01:51:51;;;;;;;2.87;2.10;;;27.40;55.10;;;;;;4932225;29;20886;-75
2022/08/10 01:54:26;;;;;;;2.30;2.20;;;27.40;55.10;;;;;;4915719;29;20493;-76
2022/08/10 01:56:58;;;;;;;2.07;1.97;;;27.40;55.20;;;;;;4900498;29;20464;-76
2022/08/10 01:59:35;;;;;;;2.80;1.60;;;27.40;55.30;;;;;;4915550;29;20500;-75
2022/08/10 02:02:05;;;;;;;2.40;2.20;;;27.40;55.20;;;;;;4917120;29;20440;-75
2022/08/10 02:04:35;;;;;;;2.30;2.10;;;27.40;55.20;;;;;;4916159;29;20433;-75
2022/08/10 02:07:02;;;;;;;2.63;2.07;;;27.40;55.30;;;;;;4931277;29;20448;-75
2022/08/10 02:09:39;;;;;;;2.97;2.07;;;27.30;55.30;;;;;;4915650;29;20432;-75
2022/08/10 02:12:12;;;;;;;3.50;2.13;;;27.30;55.30;;;;;;4915603;29;20487;-76
2022/08/10 02:14:44;;;;;;;1.90;1.80;;;27.30;55.40;;;;;;4931555;29;20516;-76
2022/08/10 02:17:18;;;;;;;2.40;2.13;;;27.30;55.40;;;;;;4931154;29;20460;-76
2022/08/10 02:19:45;;;;;;;2.07;1.87;;;27.30;55.40;;;;;;4916524;29;20447;-77
2022/08/10 02:22:17;;;;;;;2.83;2.20;;;27.20;55.40;;;;;;4915301;29;20449;-75
2022/08/10 02:24:46;;;;;;;3.37;2.40;;;27.20;55.40;;;;;;4899876;29;20483;-76
2022/08/10 02:27:17;;;;;;;2.37;1.90;;;27.20;55.40;;;;;;4915393;29;20958;-75
2022/08/10 02:29:48;;;;;;;2.90;2.00;;;27.20;55.50;;;;;;4915425;29;20428;-76
2022/08/10 02:32:16;;;;;;;2.40;2.20;;;27.20;55.50;;;;;;4915554;29;20453;-77
2022/08/10 02:34:48;;;;;;;2.50;2.30;;;27.20;55.50;;;;;;4915176;29;20472;-76
2022/08/10 02:37:23;;;;;;;2.40;2.20;;;27.10;55.50;;;;;;4930692;29;20460;-76
2022/08/10 02:39:54;;;;;;;2.20;2.10;;;27.10;56.10;;;;;;4914465;29;20432;-76
2022/08/10 02:42:38;;;;;;;2.53;1.97;;;27.10;55.60;;;;;;4930893;29;20500;-75
2022/08/10 02:45:10;;;;;;;2.50;2.30;;;27.10;55.60;;;;;;4915839;29;20436;-75
2022/08/10 02:48:04;;;;;;;2.93;2.30;;;27.10;55.60;;;;;;4916440;29;20783;-76
2022/08/10 02:50:35;;;;;;;2.80;2.03;;;27.00;56.10;;;;;;4915755;29;20421;-75
2022/08/10 02:53:10;;;;;;;2.40;2.17;;;27.00;55.60;;;;;;4930834;29;20456;-75
2022/08/10 02:55:49;;;;;;;2.50;2.30;;;27.00;55.60;;;;;;4931212;29;20839;-75
2022/08/10 02:58:38;;;;;;;2.70;2.20;;;27.00;55.70;;;;;;4930668;29;20982;-75
2022/08/10 03:01:11;;;;;;;2.30;2.10;;;27.00;55.70;;;;;;4915737;29;20432;-76
2022/08/10 03:03:51;;;;;;;2.37;2.17;;;27.00;55.70;;;;;;4915689;29;20957;-76
2022/08/10 03:06:25;;;;;;;2.40;2.10;;;26.90;55.70;;;;;;4930297;29;20942;-76
2022/08/10 03:08:52;;;;;;;2.30;2.10;;;26.90;55.80;;;;;;4899394;29;20906;-76
2022/08/10 03:11:27;;;;;;;2.23;2.00;;;26.90;55.80;;;;;;4946269;29;20455;-76
2022/08/10 03:14:00;;;;;;;2.73;1.97;;;26.90;55.80;;;;;;4927151;29;20420;-76
2022/08/10 03:16:31;;;;;;;3.77;2.27;;;26.90;55.90;;;;;;4914825;29;20856;-75
2022/08/10 03:19:03;;;;;;;2.30;2.00;;;26.80;55.80;;;;;;4914985;29;20444;-75
2022/08/10 03:21:33;;;;;;;2.23;1.60;;;26.80;55.80;;;;;;4914450;29;20457;-75
2022/08/10 03:24:01;;;;;;;3.20;2.20;;;26.80;55.90;;;;;;4898581;29;20777;-76
2022/08/10 03:26:33;;;;;;;2.33;2.13;;;26.80;55.90;;;;;;4930200;29;20451;-75
2022/08/10 03:29:03;;;;;;;2.67;2.47;;;26.80;56.00;;;;;;4915808;29;20455;-75
2022/08/10 03:31:31;;;;;;;2.13;2.00;;;26.80;56.00;;;;;;4897531;29;20537;-75
2022/08/10 03:34:02;;;;;;;2.93;2.10;;;26.70;56.00;;;;;;4899430;29;20417;-78
2022/08/10 03:36:28;;;;;;;4.30;2.50;;;26.70;56.00;;;;;;4919407;29;20472;-78
2022/08/10 03:38:55;;;;;;;3.50;2.40;;;26.70;56.00;;;;;;4918540;29;20468;-78
2022/08/10 03:41:40;;;;;;;3.07;2.30;;;26.70;56.00;;;;;;4922394;29;21041;-78
2022/08/10 03:44:11;;;;;;;3.57;2.23;;;26.70;56.00;;;;;;4919710;29;20428;-78
2022/08/10 03:46:41;;;;;;;2.47;2.27;;;26.70;56.00;;;;;;4920723;29;20895;-78
2022/08/10 03:49:10;;;;;;;2.57;2.37;;;26.60;56.00;;;;;;4903233;29;20424;-78
2022/08/10 03:51:39;;;;;;;2.30;2.10;;;26.60;56.70;;;;;;4919379;29;20456;-78
2022/08/10 03:54:08;;;;;;;3.30;2.10;;;26.60;56.10;;;;;;4919024;29;20493;-78
2022/08/10 03:56:41;;;;;;;2.87;2.23;;;26.60;56.10;;;;;;4920415;29;20492;-78
2022/08/10 03:59:10;;;;;;;2.60;2.40;;;26.60;56.20;;;;;;4919104;29;20409;-78
2022/08/10 04:01:36;;;;;;;2.53;2.30;;;26.60;56.20;;;;;;4920106;29;20455;-78
2022/08/10 04:04:04;;;;;;;2.43;2.23;;;26.60;56.20;;;;;;4934973;29;20440;-78
2022/08/10 04:06:33;;;;;;;2.90;2.70;;;26.50;56.20;;;;;;4934436;29;20429;-78
2022/08/10 04:09:01;;;;;;;2.67;2.23;;;26.50;56.20;;;;;;4919832;29;20441;-78
2022/08/10 04:11:29;;;;;;;2.50;2.30;;;26.50;56.20;;;;;;4903776;29;20455;-78
2022/08/10 04:13:58;;;;;;;2.50;2.30;;;26.50;56.30;;;;;;4935010;29;20433;-78
2022/08/10 04:16:26;;;;;;;2.43;2.10;;;26.50;56.30;;;;;;4887651;29;20482;-78
2022/08/10 04:18:52;;;;;;;2.37;2.20;;;26.40;56.30;;;;;;4918466;29;20998;-78
2022/08/10 04:21:29;;;;;;;3.80;2.30;;;26.40;56.30;;;;;;4919032;29;20467;-78
2022/08/10 04:24:02;;;;;;;2.50;2.30;;;26.40;56.30;;;;;;4918971;29;20424;-78
2022/08/10 04:26:32;;;;;;;2.67;2.47;;;26.40;56.40;;;;;;4937781;29;20486;-78
2022/08/10 04:29:04;;;;;;;2.40;2.17;;;26.40;56.40;;;;;;4937090;29;20428;-78
2022/08/10 04:31:34;;;;;;;3.10;2.57;;;26.30;56.40;;;;;;4907822;29;20443;-78
2022/08/10 04:34:05;;;;;;;3.23;2.30;;;26.30;56.40;;;;;;4919500;29;20880;-75
2022/08/10 04:36:32;;;;;;;2.77;2.17;;;26.30;56.40;;;;;;4920415;29;20460;-77
2022/08/10 04:39:01;;;;;;;2.60;2.40;;;26.30;56.50;;;;;;4919469;29;20432;-77
2022/08/10 04:41:30;;;;;;;3.00;2.63;;;26.30;56.50;;;;;;4919270;29;20439;-77
2022/08/10 04:43:56;;;;;;;2.70;2.50;;;26.30;56.50;;;;;;4918950;29;20478;-74
2022/08/10 04:46:27;;;;;;;2.87;2.67;;;26.30;56.50;;;;;;4918463;29;20428;-79
2022/08/10 04:48:53;;;;;;;2.67;2.43;;;26.20;56.50;;;;;;4919929;29;20448;-76
2022/08/10 04:51:19;;;;;;;3.23;2.50;;;26.20;56.60;;;;;;4917390;29;20452;-76
2022/08/10 04:53:50;;;;;;;2.70;2.50;;;26.20;56.60;;;;;;4918098;29;20239;-75
2022/08/10 04:56:23;;;;;;;3.03;2.70;;;26.20;56.60;;;;;;4917158;29;20515;-76
2022/08/10 04:58:54;;;;;;;2.73;2.53;;;26.20;56.60;;;;;;4916913;29;20519;-75
2022/08/10 05:01:20;;;;;;;4.73;2.53;;;26.20;56.70;;;;;;4933266;29;20444;-75
2022/08/10 05:03:48;;;;;;;3.37;2.40;;;26.10;56.60;;;;;;4918007;29;20467;-75
2022/08/10 05:06:17;;;;;;;2.37;2.17;;;26.10;56.70;;;;;;4918458;29;20173;-77
2022/08/10 05:08:43;;;;;;;2.50;2.20;;;26.10;56.70;;;;;;4916757;29;20440;-75
2022/08/10 05:11:09;;;;;;;2.97;2.77;;;26.10;56.80;;;;;;4917083;29;20169;-76
2022/08/10 05:13:34;;;;;;;2.80;2.60;;;26.10;56.90;;;;;;4917686;29;20448;-76
2022/08/10 05:16:00;;;;;;;4.10;2.40;;;26.10;56.80;;;;;;4916992;29;20264;-76
2022/08/10 05:18:29;;;;;;;3.33;2.40;;;26.10;56.90;;;;;;4948809;29;20426;-76
2022/08/10 05:21:23;;;;;;;4.00;2.03;;;26.10;56.90;;;;;;4900216;29;20459;-77
2022/08/10 05:23:51;;;;;;;2.60;2.40;;;26.10;56.90;;;;;;4904220;29;20432;-78
2022/08/10 05:26:17;;;;;;;4.50;2.80;;;26.00;56.90;;;;;;4916638;29;20467;-77
2022/08/10 05:28:43;;;;;;;5.63;2.30;;;26.00;57.00;;;;;;4930896;29;20831;-77
2022/08/10 05:31:12;;;;;;;2.40;2.20;;;26.00;57.00;;;;;;4917786;29;20762;-77
2022/08/10 05:33:38;;;;;;;2.90;2.60;;;26.00;57.00;;;;;;4931559;29;21000;-77
2022/08/10 05:36:05;;;;;;;4.50;2.60;;;26.00;57.00;;;;;;4911828;29;20526;-77
2022/08/10 05:38:32;;;;;;;2.50;2.30;;;25.90;57.00;;;;;;4929104;29;20480;-77
2022/08/10 05:41:04;;;;;;;2.80;2.37;;;25.90;57.00;;;;;;4916165;29;20429;-77
2022/08/10 05:43:33;;;;;;;2.30;2.10;;;25.90;57.00;;;;;;4915534;29;20516;-77
2022/08/10 05:45:59;;;;;;;2.60;2.40;;;25.90;57.10;;;;;;4917453;29;20452;-77
2022/08/10 05:48:27;;;;;;;4.37;2.63;;;25.90;57.10;;;;;;4915700;29;20468;-77
2022/08/10 05:50:56;;;;;;;2.43;2.33;;;25.90;57.10;;;;;;4917254;29;20456;-77
2022/08/10 05:53:22;;;;;;;2.83;2.63;;;25.90;57.10;;;;;;4915484;29;20460;-76
2022/08/10 05:55:51;;;;;;;3.03;2.73;;;25.90;57.20;;;;;;4931878;29;20435;-77
2022/08/10 05:58:17;;;;;;;2.90;2.70;;;25.90;57.20;;;;;;4915583;29;20472;-77
2022/08/10 06:00:55;;;;;;;2.57;2.33;;;25.90;57.20;;;;;;4899725;29;20460;-77
2022/08/10 06:03:30;;;;;;;3.33;2.20;;;25.90;57.20;;;;;;4930933;29;20507;-77
2022/08/10 06:05:58;;;;;;;3.13;2.60;;;25.80;57.20;;;;;;4915821;29;20454;-77
2022/08/10 06:08:32;;;;;;;4.20;2.10;;;25.80;57.20;;;;;;4916850;29;20459;-77
2022/08/10 06:11:02;;;;;;;3.27;2.53;;;25.80;57.20;;;;;;4915879;29;20443;-77
2022/08/10 06:16:22;;;;;;;3.40;2.33;;;25.80;57.30;;;;;;4915273;29;20467;-76
2022/08/10 06:18:49;;;;;;;2.60;2.40;;;25.80;57.30;;;;;;4916470;29;20425;-78
2022/08/10 06:21:19;;;;;;;2.57;2.37;;;25.80;57.30;;;;;;4931171;29;20539;-77
2022/08/10 06:23:51;;;;;;;3.43;2.87;;;25.80;57.30;;;;;;4915408;29;21125;-77
2022/08/10 06:26:19;;;;;;;2.73;2.53;;;25.70;57.30;;;;;;4931081;29;20437;-77
2022/08/10 06:29:05;;;;;;;2.50;2.30;;;25.70;57.30;;;;;;4946833;29;20425;-77
2022/08/10 06:31:37;;;;;;;5.40;3.10;;;25.70;57.40;;;;;;4915599;29;20493;-77
2022/08/10 06:34:07;;;;;;;2.73;2.53;;;25.70;57.40;;;;;;4915117;29;20853;-77
2022/08/10 06:36:37;;;;;;;3.33;2.50;;;25.70;57.40;;;;;;4915584;29;20472;-77
2022/08/10 06:39:03;;;;;;;4.93;2.40;;;25.70;57.40;;;;;;4931047;29;20511;-77
2022/08/10 06:41:37;;;;;;;3.20;2.90;;;25.70;57.40;;;;;;4915384;29;20860;-77
2022/08/10 06:44:10;;;;;;;2.80;2.60;;;25.70;57.40;;;;;;4930916;29;20456;-76
2022/08/10 06:46:39;;;;;;;2.70;2.30;;;25.70;57.40;;;;;;4930489;29;20852;-77
2022/08/10 06:49:10;;;;;;;2.83;2.50;;;25.70;57.40;;;;;;4946528;28;20480;-77
2022/08/10 06:51:42;;;;;;;2.50;2.30;;;25.70;57.40;;;;;;4915304;29;20539;-77
2022/08/10 06:54:12;;;;;;;2.93;2.67;;;25.70;57.40;;;;;;4915129;29;20953;-76
2022/08/10 06:56:44;;;;;;;2.23;2.10;;;25.70;57.30;;;;;;4915265;29;20472;-75
2022/08/10 06:59:21;;;;;;;3.13;2.80;;;25.70;57.30;;;;;;4930960;29;20507;-76
2022/08/10 07:01:56;;;;;;;2.80;2.60;;;25.70;57.30;;;;;;4898077;29;20453;-76
2022/08/10 07:04:51;;;;;;;2.90;2.70;;;25.70;57.30;;;;;;4929253;29;20452;-76
2022/08/10 07:07:21;;;;;;;2.50;2.30;;;25.70;57.30;;;;;;4889247;29;20553;-77
2022/08/10 07:09:53;;;;;;;3.77;2.80;;;25.70;57.30;;;;;;4915077;29;20512;-76
2022/08/10 07:12:25;;;;;;;3.20;2.50;;;25.70;57.30;;;;;;4913954;29;20482;-76
2022/08/10 07:14:58;;;;;;;2.60;2.40;;;25.70;57.20;;;;;;4913121;29;20452;-77
2022/08/10 07:17:29;;;;;;;3.87;2.57;;;25.70;57.10;;;;;;4916572;29;20455;-77
2022/08/10 07:19:58;;;;;;;3.40;2.90;;;25.70;57.00;;;;;;4916052;29;20425;-76
2022/08/10 07:22:44;;;;;;;2.43;2.23;;;25.70;57.10;;;;;;4929315;29;20447;-76
2022/08/10 07:25:17;;;;;;;2.80;2.60;;;25.70;57.60;;;;;;4917344;29;20457;-78
2022/08/10 07:27:48;;;;;;;2.80;2.57;;;25.70;57.00;;;;;;4899962;29;20519;-78
2022/08/10 07:30:14;;;;;;;3.33;3.03;;;25.70;57.00;;;;;;4919514;29;20443;-79
2022/08/10 07:32:43;;;;;;;3.40;3.10;;;25.70;57.00;;;;;;4920105;29;20472;-78
2022/08/10 07:35:16;;;;;;;3.00;2.70;;;25.70;57.10;;;;;;4922430;29;20480;-78
2022/08/10 07:37:46;;;;;;;3.17;2.97;;;25.70;57.10;;;;;;4905896;29;20457;-78
2022/08/10 07:40:18;;;;;;;2.97;2.77;;;25.80;57.10;;;;;;4921557;29;20510;-78
2022/08/10 07:42:47;;;;;;;2.67;2.47;;;25.80;57.10;;;;;;4937092;29;20437;-78
2022/08/10 07:45:18;;;;;;;3.10;2.80;;;25.80;57.10;;;;;;4937156;29;20437;-78
2022/08/10 07:48:10;;;;;;;3.17;2.90;;;25.80;57.10;;;;;;4937662;29;20410;-78
2022/08/10 07:50:41;;;;;;;4.33;3.10;;;25.80;57.10;;;;;;4935233;29;20505;-78
2022/08/10 07:53:12;;;;;;;3.33;2.90;;;25.80;57.10;;;;;;4934622;29;20461;-78
2022/08/10 07:55:44;;;;;;;7.13;2.97;;;25.80;57.10;;;;;;4938454;29;20425;-78
2022/08/10 07:58:15;;;;;;;3.40;3.10;;;25.80;57.10;;;;;;4918635;29;20474;-78
2022/08/10 08:00:44;;;;;;;2.80;2.60;;;25.90;57.10;;;;;;4938012;29;20595;-78
2022/08/10 08:03:14;;;;;;;3.60;3.30;;;25.90;57.10;;;;;;4941427;29;20476;-78
2022/08/10 08:05:46;;;;;;;3.33;3.03;;;25.90;57.10;;;;;;4940263;29;20548;-78
2022/08/10 08:08:14;;;;;;;3.47;3.17;;;25.90;57.10;;;;;;4940622;29;20432;-78
2022/08/10 08:10:41;;;;;;;5.63;2.83;;;25.90;57.10;;;;;;4938862;29;20464;-77
2022/08/10 08:13:09;;;;;;;3.53;3.27;;;25.90;57.10;;;;;;4921973;29;20440;-79
2022/08/10 08:15:37;;;;;;;3.20;2.77;;;25.90;57.10;;;;;;4919568;29;20476;-79
2022/08/10 08:18:10;;;;;;;3.50;3.20;;;25.90;57.10;;;;;;4902626;29;20472;-77
2022/08/10 08:20:36;;;;;;;3.30;3.00;;;25.90;57.00;;;;;;4930575;29;20795;-78
2022/08/10 08:23:04;;;;;;;3.30;3.00;;;25.90;57.00;;;;;;4903872;29;20469;-78
2022/08/10 08:25:33;;;;;;;3.00;2.80;;;25.90;57.00;;;;;;4936536;29;20851;-77
2022/08/10 08:28:01;;;;;;;3.23;2.93;;;25.90;56.90;;;;;;4921090;29;20485;-78
2022/08/10 08:30:28;;;;;;;5.00;3.50;;;26.00;57.00;;;;;;4906454;29;20432;-78
2022/08/10 08:32:55;;;;;;;3.57;3.27;;;26.00;57.00;;;;;;4922668;29;20865;-78
2022/08/10 08:35:24;;;;;;;3.00;2.80;;;26.00;57.00;;;;;;4923323;29;20439;-78
2022/08/10 08:37:52;;;;;;;4.00;3.70;;;26.00;56.90;;;;;;4953553;29;20519;-78
2022/08/10 08:40:26;;;;;;;3.17;2.97;;;26.00;57.00;;;;;;4923782;29;20425;-78
2022/08/10 08:43:30;;;;;;;3.37;3.07;;;26.00;56.90;;;;;;4922399;29;20432;-78
2022/08/10 08:46:16;;;;;;;3.60;3.30;;;26.10;57.00;;;;;;4934966;29;20952;-77
2022/08/10 08:48:51;;;;;;;3.10;2.90;;;26.10;57.00;;;;;;4920587;29;20428;-78
2022/08/10 08:51:49;;;;;;;3.50;3.20;;;26.10;57.00;;;;;;4922194;29;20451;-77
2022/08/10 08:55:01;;;;;;;3.57;3.17;;;26.10;57.00;;;;;;4923758;29;20425;-78
2022/08/10 08:57:54;;;;;;;3.57;3.27;;;26.10;57.00;;;;;;4907786;29;20468;-78
2022/08/10 09:00:23;;;;;;;3.40;2.83;;;26.20;57.00;;;;;;4938730;29;20453;-78
2022/08/10 09:03:30;;;;;;;3.50;3.20;;;26.20;57.60;;;;;;4938812;29;20452;-78
2022/08/10 09:06:27;;;;;;;3.80;3.50;;;26.20;57.00;;;;;;4910076;29;20484;-78
2022/08/10 09:09:31;;;;;;;4.10;3.80;;;26.30;57.00;;;;;;4938886;28;20469;-78
2022/08/10 09:12:21;;;;;;;3.97;3.47;;;26.30;56.90;;;;;;4905613;29;20479;-78
2022/08/10 09:14:59;;;;;;;3.70;3.40;;;26.30;56.90;;;;;;4930670;29;20460;-78
2022/08/10 09:17:25;;;;;;;3.53;3.20;;;26.30;56.90;;;;;;4921339;29;20453;-78
2022/08/10 09:20:14;;;;;;;3.50;3.20;;;26.40;56.90;;;;;;4936902;29;20751;-78
2022/08/10 09:23:13;;;;;;;3.97;3.57;;;26.40;56.80;;;;;;4919445;29;20501;-78
2022/08/10 09:25:47;;;;;;;5.23;3.77;;;26.50;56.90;;;;;;4901437;29;20492;-78
2022/08/10 09:28:30;;;;;;;18.63;4.43;;;26.50;56.90;;;;;;4921206;29;20425;-76
2022/08/10 09:31:04;;;;;;;7.43;4.03;;;26.60;57.00;;;;;;4897386;29;20422;-73
2022/08/10 09:33:39;;;;;;;6.73;4.10;;;26.60;56.60;;;;;;4914162;29;20476;-75
2022/08/10 09:36:18;;;;;;;4.80;3.30;;;26.70;56.60;;;;;;4900257;29;20977;-75
2022/08/10 09:39:21;;;;;;;5.37;4.00;;;26.70;57.10;;;;;;4916596;29;20500;-75
2022/08/10 09:41:54;;;;;;;5.10;4.60;;;26.80;56.60;;;;;;4932151;29;20440;-75
2022/08/10 09:44:51;;;;;;;4.03;3.60;;;26.80;56.50;;;;;;4916055;29;20793;-75
2022/08/10 09:47:41;;;;;;;6.10;4.27;;;26.90;56.60;;;;;;4948115;29;20496;-75
2022/08/10 09:50:25;;;;;;;3.80;3.50;;;26.90;56.30;;;;;;4943763;29;20421;-76
2022/08/10 09:52:50;;;;;;;4.57;4.00;;;26.90;56.20;;;;;;4932289;29;20457;-77
2022/08/10 09:55:38;;;;;;;5.70;4.07;;;27.00;56.20;;;;;;4932378;29;20429;-75
2022/08/10 09:58:26;;;;;;;4.07;3.70;;;27.00;56.10;;;;;;4929591;29;20228;-76
2022/08/10 10:01:23;;;;;;;4.80;4.30;;;27.00;56.00;;;;;;4932134;29;20456;-75
2022/08/10 10:04:03;;;;;;;5.07;3.67;;;27.00;55.80;;;;;;4909827;29;20483;-74
2022/08/10 10:07:00;;;;;;;5.13;3.93;;;27.10;55.70;;;;;;4916871;29;20449;-77
2022/08/10 10:09:50;;;;;;;4.30;3.90;;;27.10;55.50;;;;;;4915445;29;20420;-75
2022/08/10 10:12:16;;;;;;;5.63;4.33;;;27.10;55.30;;;;;;4914952;29;20445;-76
2022/08/10 10:18:03;;;;;;;4.20;3.90;;;27.20;55.10;;;;;;4916824;29;20441;-74
2022/08/10 10:20:48;;;;;;;4.43;4.03;;;27.20;55.00;;;;;;4912502;29;20489;-75
2022/08/10 10:23:31;;;;;;;4.53;4.13;;;27.30;54.90;;;;;;4940462;28;20471;-76
2022/08/10 10:26:06;;;;;;;5.40;5.00;;;27.30;54.60;;;;;;4916728;29;20437;-74
2022/08/10 10:28:54;;;;;;;7.00;3.77;;;27.40;54.60;;;;;;4931303;29;20452;-74
2022/08/10 10:31:37;;;;;;;5.00;4.60;;;27.40;54.60;;;;;;4884011;29;20468;-74
2022/08/10 10:34:36;;;;;;;4.30;3.90;;;27.50;54.40;;;;;;4899085;29;20438;-75
2022/08/10 10:37:08;;;;;;;4.50;3.87;;;27.50;54.30;;;;;;4915003;29;21060;-75
2022/08/10 10:39:41;;;;;;;4.37;3.90;;;27.50;54.30;;;;;;4916459;29;20436;-75
2022/08/10 10:42:26;;;;;;;4.20;3.70;;;27.50;54.20;;;;;;4932001;29;20475;-75
2022/08/10 10:45:04;;;;;;;4.27;3.87;;;27.60;54.10;;;;;;4948945;29;20448;-78
2022/08/10 10:47:34;;;;;;;5.10;4.47;;;27.60;54.00;;;;;;4918336;29;20477;-77
2022/08/10 10:50:11;;;;;;;4.63;4.33;;;27.70;54.10;;;;;;4932893;29;20496;-77
2022/08/10 10:53:10;;;;;;;4.50;4.10;;;27.70;54.10;;;;;;4916829;29;20448;-77
2022/08/10 10:55:51;;;;;;;4.53;4.13;;;27.70;54.00;;;;;;4948195;29;20446;-76
2022/08/10 10:58:37;;;;;;;4.93;4.53;;;27.80;53.90;;;;;;4933294;29;20496;-77
2022/08/10 11:01:18;;;;;;;4.90;4.23;;;27.80;53.80;;;;;;4916199;29;20448;-78
2022/08/10 11:03:48;;;;;;;4.50;3.73;;;27.90;53.90;;;;;;4917616;29;20437;-77
2022/08/10 11:06:31;;;;;;;4.80;4.40;;;27.90;53.80;;;;;;4916417;29;20484;-76
2022/08/10 11:09:04;;;;;;;6.07;4.30;;;27.90;53.70;;;;;;4947644;29;20428;-77
2022/08/10 11:11:38;;;;;;;6.90;4.47;;;28.00;53.80;;;;;;4931928;29;20974;-78
2022/08/10 11:14:52;;;;;;;4.80;4.40;;;28.00;53.60;;;;;;4900956;29;20441;-78
2022/08/10 11:17:24;;;;;;;4.73;3.70;;;28.10;53.60;;;;;;4857876;29;20986;-75
2022/08/10 11:20:14;;;;;;;4.80;4.40;;;28.10;53.60;;;;;;4915693;29;20813;-73
2022/08/10 11:23:02;;;;;;;5.50;4.30;;;28.10;53.60;;;;;;4917292;29;20488;-73
2022/08/10 11:25:35;;;;;;;4.90;4.40;;;28.20;52.40;;;;;;4917113;29;20816;-72
2022/08/10 11:28:17;;;;;;;5.47;4.70;;;28.20;52.90;;;;;;4931906;29;20536;-73
2022/08/10 11:30:58;;;;;;;4.67;4.27;;;28.30;53.30;;;;;;4932139;29;20428;-73
2022/08/10 11:33:29;;;;;;;5.17;4.77;;;28.30;53.20;;;;;;4947682;29;20401;-73
2022/08/10 11:36:17;;;;;;;5.43;4.63;;;28.40;53.30;;;;;;4931286;29;20421;-72
2022/08/10 11:39:09;;;;;;;4.70;4.30;;;28.40;53.30;;;;;;4917115;29;20500;-73
2022/08/10 11:41:46;;;;;;;4.23;3.83;;;28.40;53.30;;;;;;4947569;29;20433;-73
2022/08/10 11:44:41;;;;;;;4.83;4.40;;;28.50;53.30;;;;;;5010333;23;21058;-70
2022/08/10 11:47:19;;;;;;;6.50;4.63;;;28.50;53.30;;;;;;4934389;29;20526;-70
2022/08/10 11:49:53;;;;;;;6.90;4.40;;;28.60;53.30;;;;;;4935832;29;20427;-70
2022/08/10 11:52:38;;;;;;;4.40;4.00;;;28.60;53.20;;;;;;4947335;29;20543;-71
2022/08/10 11:55:20;;;;;;;6.53;4.60;;;28.60;53.00;;;;;;4915744;29;20420;-70
2022/08/10 11:57:54;;;;;;;4.97;4.57;;;28.70;53.00;;;;;;4962737;28;20487;-70
2022/08/10 12:00:20;;;;;;;4.40;4.10;;;28.70;52.90;;;;;;4947387;29;20439;-70
2022/08/10 12:03:01;;;;;;;6.10;4.93;;;28.70;52.90;;;;;;4934989;29;20436;-70
2022/08/10 12:05:33;;;;;;;4.60;4.30;;;28.80;52.90;;;;;;4935311;29;20877;-69
2022/08/10 12:08:01;;;;;;;4.80;4.43;;;28.80;52.80;;;;;;4922162;29;20928;-70
2022/08/10 12:10:34;;;;;;;9.33;4.67;;;28.80;52.80;;;;;;4929964;29;20452;-70
2022/08/10 12:13:15;;;;;;;5.13;4.13;;;28.90;52.80;;;;;;4931013;29;20503;-70
2022/08/10 12:16:10;;;;;;;5.03;4.63;;;28.90;52.70;;;;;;4951574;28;20413;-70
2022/08/10 12:18:45;;;;;;;4.77;4.37;;;29.00;52.70;;;;;;4929753;29;20486;-70
2022/08/10 12:21:20;;;;;;;4.90;4.40;;;29.00;52.70;;;;;;4934201;29;20400;-70
2022/08/10 12:23:57;;;;;;;5.30;4.50;;;29.00;52.60;;;;;;4934152;29;20399;-70
2022/08/10 12:26:27;;;;;;;4.43;4.03;;;29.00;52.40;;;;;;4934487;29;20489;-70
2022/08/10 12:29:00;;;;;;;4.90;4.50;;;29.10;52.30;;;;;;4934257;29;20957;-70
2022/08/10 12:31:34;;;;;;;4.40;4.00;;;29.10;52.10;;;;;;4934106;29;20451;-70
2022/08/10 12:34:00;;;;;;;4.63;4.23;;;29.10;52.10;;;;;;4965830;28;20412;-69
2022/08/10 12:36:31;;;;;;;5.13;4.67;;;29.20;52.00;;;;;;4946683;28;20945;-69
2022/08/10 12:39:17;;;;;;;4.10;3.80;;;29.20;51.90;;;;;;4916316;29;20453;-70
2022/08/10 12:41:59;;;;;;;4.03;3.70;;;29.20;52.00;;;;;;4917177;29;20882;-70
2022/08/10 12:44:49;;;;;;;5.07;4.67;;;29.30;51.90;;;;;;4918184;29;20432;-70
2022/08/10 12:48:04;;;;;;;4.73;4.33;;;29.30;51.80;;;;;;4937952;29;20460;-70
2022/08/10 12:50:49;;;;;;;4.57;4.17;;;29.30;51.90;;;;;;4935076;29;20502;-70
2022/08/10 12:53:43;;;;;;;4.93;4.47;;;29.30;51.80;;;;;;4919353;29;20480;-71
2022/08/10 12:56:28;;;;;;;5.00;4.60;;;29.40;51.90;;;;;;4939750;29;20455;-70
2022/08/10 12:58:56;;;;;;;4.53;4.17;;;29.40;51.80;;;;;;4921330;29;20984;-70
2022/08/10 13:01:26;;;;;;;4.77;4.37;;;29.40;51.70;;;;;;4933661;29;20435;-70
2022/08/10 13:03:59;;;;;;;4.93;4.53;;;29.50;51.70;;;;;;4927599;29;20441;-70
2022/08/10 13:06:30;;;;;;;3.90;3.60;;;29.50;51.80;;;;;;4922864;29;20408;-70
2022/08/10 13:09:11;;;;;;;4.70;4.30;;;29.50;51.80;;;;;;4949693;29;20924;-70
2022/08/10 13:12:02;;;;;;;4.43;4.13;;;29.60;51.80;;;;;;4924411;29;20439;-70
2022/08/10 13:14:45;;;;;;;4.10;3.80;;;29.60;51.70;;;;;;4937285;29;20423;-70
2022/08/10 13:17:26;;;;;;;3.90;3.60;;;29.70;51.60;;;;;;4936770;29;20455;-70
2022/08/10 13:19:58;;;;;;;4.50;4.10;;;29.70;51.60;;;;;;4936718;29;20419;-70
2022/08/10 13:22:29;;;;;;;4.90;4.50;;;29.70;51.50;;;;;;4947668;29;20452;-70
2022/08/10 13:25:00;;;;;;;4.10;3.80;;;29.80;51.50;;;;;;4937656;29;20503;-70
2022/08/10 13:27:33;;;;;;;4.73;4.00;;;29.80;51.40;;;;;;4937738;29;20408;-70
2022/08/10 13:30:05;;;;;;;4.00;3.70;;;29.90;51.30;;;;;;4931216;29;20935;-70
2022/08/10 13:32:33;;;;;;;4.00;3.70;;;29.90;50.90;;;;;;4919195;29;20495;-70
2022/08/10 13:35:10;;;;;;;4.57;4.20;;;29.90;51.00;;;;;;4929890;29;20444;-70